Hlavní strana
METAR-TAF:

METAR-TAF

Letiště :

Fairfield Municipal Airport

Fairfield, Illinois, Spojené státy americké

zeměpisná šířka: 38-22-43N, zeměpisná délka: 088-24-46W, výška: 133 m

Aktuální stav počasí

Zpráva byla vytvořena před 19 minutami, v 00:55 UTC
Bezvětří
Teplota 23°C
Vlhkost vzduchu 78%
Tlak 1016 hPa
Viditelnost: 16.1 km
Zataženo ve výšce 3500 ft

METAR: KFWC 220055Z AUTO 00000KT 10SM OVC035 23/19 A3000 RMK AO1 T02250192

Čas: 20:14 (01:14 UTC)


TAF: chybějící

Stav a předpovědi počasí z více než 4 000 letišť (zprávy METAR a TAF).

Červené a žluté tečky na mapě představují dostupné meteorologické stanice.

Když kurzor umístíte na tečku, zobrazí se název stanice.

Pak kliknutím zobrazíte stav a předpověď počasí.

Chcete-li změnit mapu, kliknutím na zelené tlačítko se znaménkem +mapu přiblížíte, kliknutím na zelené tlačítko se znaménkem – mapu oddálíte a kliknutím na zelené šipky přejdete na sousední mapy.


METAR-TAF: